KOMK/OMK METAR and TAF weather

Enter ICAO airport designator
Station Type Date Time Source
KOMK METAR 2019/12/09 05:53 UTC NOAA

KOMK 090553Z AUTO 36009KT 10SM CLR 01/M06 A3019 RMK AO2 SLP236 T00111056 10039 20011 53006


Station Type Date Time Source
KOMK Decoded METAR 2019/12/09 05:53 UTC NOAA

OMAK AIRPORT, WA, United States (KOMK) 48-28N 119-31W 395M
Dec 09, 2019 - 12:53 AM EST / 2019.12.09 0553 UTC
Wind: from the N (360 degrees) at 10 MPH (9 KT):0
Visibility: 10 mile(s):0
Sky conditions: clear
Temperature: 34.0 F (1.1 C)
Windchill: 26 F (-3 C):1
Dew Point: 21.9 F (-5.6 C)
Relative Humidity: 60%
Pressure (altimeter): 30.19 in. Hg (1022 hPa)
Pressure tendency: 0.02 inches (0.6 hPa) higher than three hours ago
ob: KOMK 090553Z AUTO 36009KT 10SM CLR 01/M06 A3019 RMK AO2 SLP236 T00111056 10039 20011 53006
cycle: 6

Station Type Date Time Source
KOMK TAF UTC NOAA

Error!

Example: see airport list